Time;durP1;ratioP1;P1;durP2;ratioP2;P2;SDS_P1;SDS_P2;PMS_P1;PMS_P2;Temp;Humidity;BMP_temperature;BMP_pressure;BME280_temperature;BME280_humidity;BME280_pressure;Samples;Min_cycle;Max_cycle;Signal;HPM_P1;HPM_P2
2021/09/07 00:02:21;;;;;;;32.05;25.15;;;17.80;76.30;;;;;;5025996;28;20124;-71
2021/09/07 00:04:47;;;;;;;31.83;25.27;;;17.80;76.30;;;;;;5024484;28;20039;-71
2021/09/07 00:07:12;;;;;;;33.70;25.73;;;17.80;76.40;;;;;;5029456;28;20276;-71
2021/09/07 00:09:38;;;;;;;38.72;26.80;;;17.80;76.30;;;;;;5034368;28;20037;-74
2021/09/07 00:12:05;;;;;;;35.22;26.83;;;17.80;76.40;;;;;;5033674;28;20025;-71
2021/09/07 00:14:30;;;;;;;32.72;26.05;;;17.70;76.40;;;;;;5033554;28;20103;-71
2021/09/07 00:16:56;;;;;;;36.03;27.27;;;17.80;76.40;;;;;;5023687;28;20385;-72
2021/09/07 00:19:22;;;;;;;35.97;26.80;;;17.70;76.50;;;;;;5025069;28;20117;-71
2021/09/07 00:21:47;;;;;;;32.75;25.42;;;17.70;76.50;;;;;;5019790;28;20435;-71
2021/09/07 00:24:15;;;;;;;34.10;27.08;;;17.70;76.60;;;;;;5028544;28;20523;-73
2021/09/07 00:26:41;;;;;;;34.63;25.15;;;17.70;76.70;;;;;;5030765;28;20049;-72
2021/09/07 00:29:07;;;;;;;35.15;25.17;;;17.60;76.70;;;;;;5017093;28;20034;-73
2021/09/07 00:31:33;;;;;;;35.35;26.17;;;17.60;76.70;;;;;;5031990;28;20041;-72
2021/09/07 00:33:58;;;;;;;36.03;25.90;;;17.60;76.70;;;;;;5031892;28;20083;-73
2021/09/07 00:36:24;;;;;;;32.33;25.23;;;17.60;76.80;;;;;;4998895;28;20057;-73
2021/09/07 00:38:49;;;;;;;31.38;23.27;;;17.60;76.90;;;;;;5003897;28;20054;-71
2021/09/07 00:41:15;;;;;;;34.78;25.65;;;17.50;76.80;;;;;;5005944;28;20078;-76
2021/09/07 00:43:41;;;;;;;32.67;24.23;;;17.50;76.90;;;;;;5000768;28;20095;-72
2021/09/07 00:46:07;;;;;;;31.73;23.38;;;17.40;77.10;;;;;;5000233;28;20402;-71
2021/09/07 00:48:32;;;;;;;30.95;22.88;;;17.40;77.40;;;;;;4998770;28;20490;-71
2021/09/07 00:50:58;;;;;;;32.50;23.77;;;17.30;77.50;;;;;;5004448;28;20026;-72
2021/09/07 00:53:25;;;;;;;32.25;23.65;;;17.30;77.60;;;;;;5005116;28;20034;-73
2021/09/07 00:55:52;;;;;;;31.63;25.15;;;17.30;77.70;;;;;;5010371;28;20153;-72
2021/09/07 00:58:19;;;;;;;33.85;24.75;;;17.20;77.90;;;;;;5026084;28;20029;-73
2021/09/07 01:00:45;;;;;;;35.33;25.67;;;17.20;78.00;;;;;;5019385;28;20029;-72
2021/09/07 01:03:11;;;;;;;30.27;24.13;;;17.20;78.20;;;;;;5023739;28;20392;-72
2021/09/07 01:05:37;;;;;;;32.63;25.98;;;17.20;78.30;;;;;;5028912;28;20500;-71
2021/09/07 01:08:03;;;;;;;32.65;25.83;;;17.10;78.30;;;;;;5026671;28;20037;-72
2021/09/07 01:10:29;;;;;;;33.22;25.02;;;17.10;78.50;;;;;;5021519;28;20041;-71
2021/09/07 01:12:55;;;;;;;32.40;24.58;;;17.10;78.60;;;;;;5022258;28;20469;-72
2021/09/07 01:15:21;;;;;;;35.25;26.48;;;17.10;78.80;;;;;;5025961;28;20384;-74
2021/09/07 01:17:47;;;;;;;33.53;25.83;;;17.10;79.20;;;;;;5020649;28;20119;-73
2021/09/07 01:20:13;;;;;;;35.60;27.35;;;17.10;79.30;;;;;;5023204;28;20120;-73
2021/09/07 01:22:39;;;;;;;33.80;25.83;;;17.10;79.40;;;;;;5029638;28;20038;-71
2021/09/07 01:25:05;;;;;;;36.35;25.80;;;17.00;79.60;;;;;;5018374;28;20104;-71
2021/09/07 01:27:31;;;;;;;34.33;26.17;;;17.00;79.70;;;;;;5024670;28;20026;-71
2021/09/07 01:29:56;;;;;;;34.08;25.83;;;16.90;79.80;;;;;;5023379;28;20032;-72
2021/09/07 01:32:23;;;;;;;31.95;24.80;;;16.90;79.90;;;;;;5022094;28;20032;-74
2021/09/07 01:34:48;;;;;;;32.05;24.65;;;17.00;79.90;;;;;;5020630;28;20029;-72
2021/09/07 01:37:14;;;;;;;32.28;25.55;;;16.90;79.80;;;;;;5024976;28;20037;-72
2021/09/07 01:39:40;;;;;;;36.10;26.67;;;16.90;79.80;;;;;;5026118;28;20065;-72
2021/09/07 01:42:07;;;;;;;36.78;27.77;;;16.80;79.90;;;;;;5026060;28;20049;-73
2021/09/07 01:44:33;;;;;;;34.53;26.23;;;16.90;80.30;;;;;;5025773;28;20025;-71
2021/09/07 01:46:59;;;;;;;34.13;26.38;;;16.80;80.40;;;;;;5010959;28;20472;-72
2021/09/07 01:49:25;;;;;;;34.15;27.02;;;16.70;80.60;;;;;;5016747;28;20034;-72
2021/09/07 01:51:51;;;;;;;35.45;26.08;;;16.70;80.80;;;;;;5021097;28;20025;-72
2021/09/07 01:54:17;;;;;;;35.90;26.33;;;16.70;80.90;;;;;;5006453;28;20042;-72
2021/09/07 01:56:42;;;;;;;35.53;27.77;;;16.70;81.00;;;;;;5010261;28;20048;-73
2021/09/07 01:59:09;;;;;;;37.65;26.98;;;16.60;81.00;;;;;;5018470;28;20415;-72
2021/09/07 02:01:35;;;;;;;37.08;27.80;;;16.60;81.00;;;;;;5023081;28;20369;-72
2021/09/07 02:04:01;;;;;;;34.13;26.92;;;16.60;81.10;;;;;;5021108;28;20027;-73
2021/09/07 02:06:26;;;;;;;36.38;26.42;;;16.60;81.00;;;;;;5027802;28;20487;-75
2021/09/07 02:08:52;;;;;;;36.05;27.95;;;16.60;80.90;;;;;;5025394;28;20033;-72
2021/09/07 02:11:18;;;;;;;32.28;24.52;;;16.60;80.80;;;;;;5014833;28;20030;-73
2021/09/07 02:13:44;;;;;;;32.72;26.25;;;16.60;80.80;;;;;;5028211;28;20065;-71
2021/09/07 02:16:10;;;;;;;34.10;27.00;;;16.60;80.80;;;;;;5031666;28;20071;-72
2021/09/07 02:18:35;;;;;;;36.88;27.73;;;16.60;80.70;;;;;;5028355;28;20038;-71
2021/09/07 02:21:01;;;;;;;38.17;29.02;;;16.50;80.50;;;;;;5033872;28;20052;-71
2021/09/07 02:23:26;;;;;;;42.83;28.75;;;16.50;80.70;;;;;;5035041;28;20046;-73
2021/09/07 02:25:53;;;;;;;39.33;27.77;;;16.50;80.70;;;;;;5033038;28;20048;-72
2021/09/07 02:28:19;;;;;;;35.38;28.05;;;16.40;80.80;;;;;;5025150;28;20349;-72
2021/09/07 02:30:44;;;;;;;35.58;27.88;;;16.40;81.00;;;;;;5014669;28;20029;-72
2021/09/07 02:33:10;;;;;;;38.72;28.75;;;16.40;81.00;;;;;;5016004;28;20034;-74
2021/09/07 02:35:36;;;;;;;36.90;27.60;;;16.30;81.00;;;;;;5008799;28;20030;-72
2021/09/07 02:38:03;;;;;;;38.63;27.60;;;16.30;81.00;;;;;;5009487;28;20084;-72
2021/09/07 02:40:29;;;;;;;37.67;29.13;;;16.30;81.10;;;;;;5006644;28;20037;-72
2021/09/07 02:42:55;;;;;;;35.65;27.23;;;16.20;81.10;;;;;;5015554;28;20049;-72
2021/09/07 02:45:21;;;;;;;43.05;29.17;;;16.20;81.20;;;;;;5021470;28;20128;-73
2021/09/07 02:47:46;;;;;;;39.40;29.10;;;16.20;81.20;;;;;;5029187;28;20602;-73
2021/09/07 02:50:15;;;;;;;39.10;28.83;;;16.20;81.40;;;;;;5023454;28;20095;-73
2021/09/07 02:52:41;;;;;;;36.33;28.10;;;16.20;81.40;;;;;;5018477;28;20062;-73
2021/09/07 02:55:08;;;;;;;34.72;27.50;;;16.20;81.40;;;;;;5007029;28;20183;-73
2021/09/07 02:57:34;;;;;;;33.50;26.65;;;16.20;81.40;;;;;;5013632;28;20040;-73
2021/09/07 03:00:00;;;;;;;36.53;27.15;;;16.20;81.30;;;;;;5009307;28;20030;-74
2021/09/07 03:02:26;;;;;;;34.55;26.83;;;16.20;81.30;;;;;;5025444;28;20038;-72
2021/09/07 03:04:52;;;;;;;33.60;26.98;;;16.20;81.30;;;;;;5038230;28;20041;-72
2021/09/07 03:07:18;;;;;;;35.00;25.55;;;16.20;81.30;;;;;;5027624;28;20556;-73
2021/09/07 03:09:44;;;;;;;33.72;25.65;;;16.10;81.20;;;;;;5019878;28;20041;-73
2021/09/07 03:12:10;;;;;;;36.55;26.52;;;16.10;81.20;;;;;;5022451;28;20067;-73
2021/09/07 03:14:36;;;;;;;38.13;28.08;;;16.10;81.50;;;;;;5019426;28;20029;-76
2021/09/07 03:17:02;;;;;;;36.47;26.00;;;16.10;81.60;;;;;;5021889;28;20044;-73
2021/09/07 03:19:27;;;;;;;34.03;26.33;;;16.10;81.70;;;;;;5026813;28;20033;-72
2021/09/07 03:21:53;;;;;;;39.03;27.60;;;16.10;81.70;;;;;;5024836;28;20043;-73
2021/09/07 03:24:19;;;;;;;33.35;26.75;;;16.10;81.70;;;;;;5005020;28;20425;-73
2021/09/07 03:26:44;;;;;;;36.10;26.63;;;16.10;81.90;;;;;;5003771;28;20045;-74
2021/09/07 03:29:10;;;;;;;37.20;27.35;;;16.00;82.00;;;;;;5008740;28;20151;-72
2021/09/07 03:31:36;;;;;;;36.70;28.50;;;16.00;82.20;;;;;;5028827;28;20460;-72
2021/09/07 03:34:02;;;;;;;42.22;29.13;;;16.00;82.30;;;;;;5025092;28;20144;-72
2021/09/07 03:36:28;;;;;;;36.28;27.00;;;15.90;82.50;;;;;;5009445;28;20109;-73
2021/09/07 03:38:54;;;;;;;38.80;28.67;;;15.80;82.70;;;;;;5020603;28;20026;-72
2021/09/07 03:41:19;;;;;;;37.88;27.17;;;15.80;82.90;;;;;;5019803;28;20041;-75
2021/09/07 03:43:45;;;;;;;38.33;27.85;;;15.80;83.00;;;;;;5018234;28;20119;-74
2021/09/07 03:46:11;;;;;;;38.03;28.23;;;15.80;83.10;;;;;;5012411;28;20156;-72
2021/09/07 03:48:36;;;;;;;37.63;27.45;;;15.80;83.00;;;;;;5028313;28;20527;-73
2021/09/07 03:51:02;;;;;;;40.70;27.95;;;15.80;83.00;;;;;;5017964;28;20022;-73
2021/09/07 03:53:29;;;;;;;39.42;28.27;;;15.70;82.90;;;;;;5028187;28;20034;-74
2021/09/07 03:55:58;;;;;;;37.28;27.75;;;15.70;83.00;;;;;;5021939;28;20029;-74
2021/09/07 03:58:24;;;;;;;37.88;28.40;;;15.70;83.10;;;;;;5027351;28;20033;-72
2021/09/07 04:00:50;;;;;;;39.47;28.17;;;15.60;83.30;;;;;;5013381;28;20377;-71
2021/09/07 04:03:17;;;;;;;38.17;27.75;;;15.60;83.20;;;;;;5029037;28;20040;-73
2021/09/07 04:05:43;;;;;;;36.20;27.15;;;15.60;83.20;;;;;;5001952;28;20045;-72
2021/09/07 04:08:10;;;;;;;38.90;28.23;;;15.60;83.30;;;;;;5005159;28;20041;-74
2021/09/07 04:10:37;;;;;;;41.22;28.45;;;15.60;83.50;;;;;;5004246;28;20049;-73
2021/09/07 04:13:03;;;;;;;39.92;28.83;;;15.60;83.50;;;;;;5012089;28;20042;-72
2021/09/07 04:15:28;;;;;;;37.92;27.60;;;15.50;83.40;;;;;;5023606;28;20536;-73
2021/09/07 04:17:54;;;;;;;41.60;30.08;;;15.50;83.70;;;;;;5010632;28;20120;-72
2021/09/07 04:20:20;;;;;;;40.58;29.55;;;15.40;83.60;;;;;;5026973;28;20049;-73
2021/09/07 04:22:45;;;;;;;36.92;28.15;;;15.40;83.70;;;;;;5023677;28;20175;-72
2021/09/07 04:25:11;;;;;;;37.08;27.75;;;15.40;83.80;;;;;;5005439;28;20408;-72
2021/09/07 04:27:37;;;;;;;38.58;28.55;;;15.40;83.80;;;;;;5004151;28;20038;-72
2021/09/07 04:30:07;;;;;;;37.17;28.00;;;15.40;83.80;;;;;;5009681;28;20488;-72
2021/09/07 04:32:34;;;;;;;37.28;28.42;;;15.40;83.80;;;;;;5018297;28;20060;-73
2021/09/07 04:35:00;;;;;;;39.92;30.58;;;15.40;83.90;;;;;;5006589;28;20026;-72
2021/09/07 04:37:26;;;;;;;40.08;30.52;;;15.40;84.00;;;;;;5005898;28;20026;-73
2021/09/07 04:39:52;;;;;;;40.63;28.80;;;15.40;84.10;;;;;;5019041;28;20048;-72
2021/09/07 04:42:18;;;;;;;37.10;28.08;;;15.30;84.20;;;;;;5025333;28;20045;-75
2021/09/07 04:44:44;;;;;;;39.22;27.80;;;15.40;84.30;;;;;;5020226;28;20457;-72
2021/09/07 04:47:10;;;;;;;37.42;28.67;;;15.30;84.30;;;;;;5034939;28;20038;-74
2021/09/07 04:49:36;;;;;;;38.13;27.42;;;15.30;84.30;;;;;;5021676;28;20037;-76
2021/09/07 04:52:02;;;;;;;38.67;28.40;;;15.30;84.30;;;;;;5019623;28;20045;-74
2021/09/07 04:54:28;;;;;;;35.83;27.23;;;15.30;84.30;;;;;;5026218;28;20029;-71
2021/09/07 04:56:54;;;;;;;37.00;26.73;;;15.30;84.40;;;;;;5001831;28;20472;-71
2021/09/07 04:59:20;;;;;;;37.70;27.35;;;15.30;84.30;;;;;;4998875;28;20157;-72
2021/09/07 05:01:46;;;;;;;37.30;27.05;;;15.40;84.40;;;;;;5009778;28;20029;-72
2021/09/07 05:04:11;;;;;;;37.35;27.48;;;15.30;84.40;;;;;;5025964;28;20376;-72
2021/09/07 05:06:37;;;;;;;38.53;27.38;;;15.30;84.50;;;;;;5022900;28;20029;-72
2021/09/07 05:09:03;;;;;;;37.42;26.45;;;15.30;84.60;;;;;;5044361;28;20435;-73
2021/09/07 05:11:29;;;;;;;35.63;26.17;;;15.30;84.50;;;;;;5022554;28;20475;-73
2021/09/07 05:13:54;;;;;;;39.85;26.77;;;15.30;84.50;;;;;;5026814;28;20393;-72
2021/09/07 05:16:20;;;;;;;39.78;27.20;;;15.30;84.30;;;;;;5026453;28;20397;-72
2021/09/07 05:18:46;;;;;;;38.03;28.05;;;15.30;84.30;;;;;;5008302;28;20038;-73
2021/09/07 05:21:11;;;;;;;42.58;28.20;;;15.30;84.30;;;;;;5011702;28;20029;-73
2021/09/07 05:23:37;;;;;;;42.95;28.85;;;15.30;84.10;;;;;;5016991;28;20479;-72
2021/09/07 05:26:03;;;;;;;40.83;28.88;;;15.30;84.10;;;;;;5014740;28;20046;-72
2021/09/07 05:28:29;;;;;;;42.65;29.02;;;15.20;84.60;;;;;;5006011;28;20045;-73
2021/09/07 05:30:55;;;;;;;39.72;28.10;;;15.20;84.70;;;;;;5027081;28;20064;-74
2021/09/07 05:33:22;;;;;;;39.33;28.70;;;15.20;84.90;;;;;;5017035;28;20045;-72
2021/09/07 05:35:48;;;;;;;35.85;27.35;;;15.30;84.90;;;;;;5008919;28;20040;-71
2021/09/07 05:38:13;;;;;;;40.33;28.98;;;15.30;84.90;;;;;;5019870;28;20120;-71
2021/09/07 05:40:39;;;;;;;37.05;28.70;;;15.40;84.70;;;;;;5023713;28;20033;-71
2021/09/07 05:43:05;;;;;;;39.53;28.17;;;15.40;84.80;;;;;;5006773;28;20042;-77
2021/09/07 05:45:30;;;;;;;40.28;28.60;;;15.50;84.70;;;;;;5005183;28;20061;-72
2021/09/07 05:47:56;;;;;;;41.05;29.48;;;15.60;84.60;;;;;;5008829;28;20050;-69
2021/09/07 05:50:22;;;;;;;42.95;30.40;;;15.60;84.40;;;;;;5005206;28;20034;-70
2021/09/07 05:52:47;;;;;;;38.45;28.20;;;15.70;84.20;;;;;;5019463;28;20040;-70
2021/09/07 05:55:13;;;;;;;38.30;28.23;;;15.80;84.00;;;;;;5004928;28;20053;-72
2021/09/07 05:57:39;;;;;;;38.40;27.95;;;15.80;83.70;;;;;;5013329;28;20057;-69
2021/09/07 06:00:06;;;;;;;37.40;27.98;;;16.00;83.60;;;;;;5022768;28;20084;-69
2021/09/07 06:02:32;;;;;;;39.13;28.63;;;16.10;83.30;;;;;;5023173;28;20042;-69
2021/09/07 06:04:58;;;;;;;37.78;28.30;;;16.10;83.00;;;;;;5021787;28;21115;-69
2021/09/07 06:07:23;;;;;;;39.70;27.60;;;16.10;83.10;;;;;;5021012;28;20058;-69
2021/09/07 06:09:49;;;;;;;36.97;27.35;;;16.20;82.90;;;;;;5024323;28;20366;-70
2021/09/07 06:12:15;;;;;;;41.20;29.50;;;16.30;82.80;;;;;;5020788;28;20132;-70
2021/09/07 06:14:40;;;;;;;39.40;28.77;;;16.30;82.50;;;;;;5020512;28;20392;-69
2021/09/07 06:17:09;;;;;;;43.83;30.83;;;16.40;82.20;;;;;;5025934;28;20064;-70
2021/09/07 06:19:35;;;;;;;41.38;29.08;;;16.40;82.30;;;;;;5023641;28;20030;-72
2021/09/07 06:22:02;;;;;;;40.25;29.90;;;16.50;82.30;;;;;;5023597;28;20099;-71
2021/09/07 06:24:28;;;;;;;43.63;30.02;;;16.50;82.30;;;;;;5033270;28;20040;-68
2021/09/07 06:26:53;;;;;;;37.97;27.85;;;16.60;82.50;;;;;;5000460;28;20034;-68
2021/09/07 06:29:19;;;;;;;37.17;28.17;;;16.70;82.30;;;;;;5004861;28;20042;-69
2021/09/07 06:31:46;;;;;;;42.08;29.52;;;16.80;82.10;;;;;;5003163;28;20107;-68
2021/09/07 06:34:12;;;;;;;39.85;27.98;;;16.80;81.90;;;;;;5011281;28;20037;-68
2021/09/07 06:36:37;;;;;;;37.88;28.27;;;17.00;81.60;;;;;;5029122;28;20036;-68
2021/09/07 06:39:03;;;;;;;39.60;29.25;;;17.00;81.40;;;;;;5031609;28;20438;-69
2021/09/07 06:41:29;;;;;;;39.05;29.20;;;17.10;81.20;;;;;;5023982;28;20034;-73
2021/09/07 06:43:55;;;;;;;44.05;31.13;;;17.20;81.00;;;;;;5025816;28;20052;-70
2021/09/07 06:46:20;;;;;;;42.33;31.38;;;17.30;80.80;;;;;;5023235;28;20050;-71
2021/09/07 06:48:46;;;;;;;44.33;30.45;;;17.40;80.40;;;;;;5029044;28;20037;-70
2021/09/07 06:51:12;;;;;;;43.40;31.38;;;17.50;79.90;;;;;;5022035;28;20466;-70
2021/09/07 06:53:37;;;;;;;50.47;32.85;;;17.60;79.90;;;;;;5035119;28;20029;-70
2021/09/07 06:56:03;;;;;;;44.55;31.27;;;17.50;79.20;;;;;;5023893;28;20109;-70
2021/09/07 06:58:28;;;;;;;46.97;32.70;;;17.60;79.10;;;;;;5022724;28;20025;-70
2021/09/07 07:00:54;;;;;;;43.15;31.98;;;17.70;79.10;;;;;;5022254;28;20034;-69
2021/09/07 07:03:20;;;;;;;42.53;32.17;;;17.80;78.90;;;;;;5024340;28;20038;-70
2021/09/07 07:05:45;;;;;;;42.20;31.75;;;17.90;78.40;;;;;;5021094;28;20037;-70
2021/09/07 07:08:11;;;;;;;41.95;32.20;;;18.00;78.00;;;;;;5022410;28;20026;-70
2021/09/07 07:10:37;;;;;;;44.83;32.50;;;18.10;78.50;;;;;;5013904;28;20452;-70
2021/09/07 07:13:03;;;;;;;45.42;31.70;;;18.30;77.50;;;;;;5033679;28;20379;-69
2021/09/07 07:15:29;;;;;;;42.65;31.88;;;18.60;77.00;;;;;;5003769;28;20053;-71
2021/09/07 07:17:55;;;;;;;40.33;29.75;;;18.70;76.60;;;;;;5020349;28;20049;-69
2021/09/07 07:20:21;;;;;;;44.70;31.65;;;18.90;76.60;;;;;;5014107;28;20039;-70
2021/09/07 07:22:46;;;;;;;47.53;32.97;;;19.10;75.30;;;;;;5025644;28;20046;-69
2021/09/07 07:25:12;;;;;;;40.20;30.30;;;19.30;74.60;;;;;;5017859;28;20393;-69
2021/09/07 07:27:41;;;;;;;38.90;29.88;;;19.40;74.50;;;;;;5030189;28;20041;-69
2021/09/07 07:30:08;;;;;;;46.20;32.28;;;19.60;74.40;;;;;;5009335;28;20098;-69
2021/09/07 07:32:34;;;;;;;41.53;31.00;;;19.70;73.10;;;;;;5004599;28;20061;-69
2021/09/07 07:35:00;;;;;;;40.75;30.90;;;19.90;73.20;;;;;;5021576;28;20041;-71
2021/09/07 07:37:25;;;;;;;40.40;30.17;;;20.10;73.00;;;;;;5022721;28;20037;-71
2021/09/07 07:39:51;;;;;;;41.55;31.13;;;20.20;72.60;;;;;;5015299;28;20038;-70
2021/09/07 07:42:17;;;;;;;42.65;32.20;;;20.40;71.70;;;;;;5022306;28;20488;-70
2021/09/07 07:44:43;;;;;;;43.08;31.58;;;20.60;70.40;;;;;;5021421;28;20111;-70
2021/09/07 07:47:09;;;;;;;42.97;31.05;;;20.70;70.30;;;;;;5023404;28;20037;-70
2021/09/07 07:49:34;;;;;;;40.03;32.40;;;20.90;69.70;;;;;;5021308;28;20363;-69
2021/09/07 07:52:00;;;;;;;42.45;32.13;;;21.10;69.20;;;;;;5021313;28;20075;-70
2021/09/07 07:54:26;;;;;;;39.80;30.77;;;21.10;69.30;;;;;;5028941;28;20038;-70
2021/09/07 07:56:51;;;;;;;43.28;32.15;;;21.10;69.50;;;;;;5025809;28;20030;-69
2021/09/07 07:59:17;;;;;;;43.42;32.58;;;21.30;69.10;;;;;;5025133;28;20034;-70
2021/09/07 08:01:43;;;;;;;38.63;30.85;;;21.30;69.80;;;;;;5024983;28;20112;-70
2021/09/07 08:04:08;;;;;;;42.15;33.45;;;21.60;68.40;;;;;;5023445;28;20037;-69
2021/09/07 08:06:35;;;;;;;44.47;33.60;;;21.70;67.10;;;;;;5029413;28;20171;-69
2021/09/07 08:09:01;;;;;;;40.72;32.30;;;21.90;67.10;;;;;;5031033;28;20038;-70
2021/09/07 08:11:27;;;;;;;42.58;33.13;;;22.10;67.20;;;;;;5008768;28;20401;-69
2021/09/07 08:13:53;;;;;;;42.80;30.85;;;22.30;65.90;;;;;;5003557;28;20505;-70
2021/09/07 08:16:20;;;;;;;42.67;33.13;;;22.60;66.20;;;;;;5006894;28;20117;-70
2021/09/07 08:18:45;;;;;;;39.72;31.55;;;22.60;65.20;;;;;;5016903;28;20045;-70
2021/09/07 08:21:11;;;;;;;41.35;33.15;;;22.70;63.80;;;;;;5025058;28;20409;-72
2021/09/07 08:23:37;;;;;;;36.75;29.95;;;22.90;64.20;;;;;;5024140;28;20065;-70
2021/09/07 08:26:03;;;;;;;42.33;31.77;;;23.10;63.80;;;;;;5001713;28;20056;-70
2021/09/07 08:28:28;;;;;;;41.50;32.47;;;23.10;62.50;;;;;;5007397;28;20045;-69
2021/09/07 08:30:54;;;;;;;36.95;29.58;;;23.20;62.60;;;;;;5014896;28;20032;-69
2021/09/07 08:33:20;;;;;;;37.50;30.67;;;23.40;63.20;;;;;;5010749;28;20461;-71
2021/09/07 08:35:45;;;;;;;40.80;31.75;;;23.50;60.90;;;;;;5023195;28;20036;-69
2021/09/07 08:38:11;;;;;;;37.63;30.17;;;23.70;61.20;;;;;;5023051;28;20049;-71
2021/09/07 08:40:38;;;;;;;38.28;29.08;;;23.90;61.10;;;;;;5027036;28;20755;-71
2021/09/07 08:43:06;;;;;;;39.75;31.77;;;24.10;60.10;;;;;;5019860;28;20122;-69
2021/09/07 08:45:31;;;;;;;38.83;29.95;;;24.30;59.70;;;;;;5028421;28;20096;-70
2021/09/07 08:47:58;;;;;;;38.70;30.88;;;24.60;59.30;;;;;;5027202;28;20727;-70
2021/09/07 08:50:24;;;;;;;43.47;30.00;;;24.80;58.80;;;;;;5007568;28;20139;-70
2021/09/07 08:52:58;;;;;;;38.40;29.48;;;24.80;57.80;;;;;;5020898;28;20125;-70
2021/09/07 08:55:28;;;;;;;43.30;30.85;;;25.00;57.70;;;;;;5016834;28;20527;-71
2021/09/07 08:57:53;;;;;;;37.60;29.33;;;25.10;56.50;;;;;;5017128;28;20032;-70
2021/09/07 09:00:30;;;;;;;35.63;28.90;;;25.10;56.40;;;;;;5024892;28;20037;-70
2021/09/07 09:02:58;;;;;;;37.40;27.63;;;25.40;56.20;;;;;;5013337;28;20038;-70
2021/09/07 09:05:29;;;;;;;36.53;28.85;;;25.60;54.60;;;;;;5021695;28;20041;-69
2021/09/07 09:07:57;;;;;;;33.30;26.52;;;25.90;53.70;;;;;;5015521;28;20141;-70
2021/09/07 09:10:24;;;;;;;36.03;28.42;;;26.00;53.60;;;;;;5019982;28;20157;-70
2021/09/07 09:13:13;;;;;;;31.30;26.23;;;26.00;52.70;;;;;;5010630;28;20044;-70
2021/09/07 09:15:39;;;;;;;36.28;29.02;;;26.10;53.00;;;;;;5023187;28;20069;-70
2021/09/07 09:18:10;;;;;;;40.75;29.90;;;26.10;51.80;;;;;;5020263;28;20416;-70
2021/09/07 09:20:37;;;;;;;34.10;27.15;;;26.10;50.30;;;;;;5022451;28;20627;-73
2021/09/07 09:23:04;;;;;;;33.55;26.08;;;26.10;51.00;;;;;;5007424;28;20119;-71
2021/09/07 09:25:39;;;;;;;34.78;26.98;;;26.30;50.80;;;;;;5001002;28;20034;-72
2021/09/07 09:28:08;;;;;;;34.38;26.90;;;26.50;50.40;;;;;;5019495;28;20026;-71
2021/09/07 09:30:40;;;;;;;33.08;24.50;;;26.40;50.20;;;;;;5020603;28;20041;-71
2021/09/07 09:33:06;;;;;;;35.05;27.90;;;26.60;51.10;;;;;;5013824;28;20033;-70
2021/09/07 09:35:44;;;;;;;30.40;24.30;;;26.60;50.30;;;;;;5019521;28;20030;-70
2021/09/07 09:38:09;;;;;;;34.22;26.77;;;26.80;50.00;;;;;;5021806;28;20048;-72
2021/09/07 09:40:35;;;;;;;33.08;23.80;;;26.80;49.50;;;;;;5019425;28;20042;-70
2021/09/07 09:43:21;;;;;;;35.33;26.38;;;26.90;49.90;;;;;;5021413;28;20406;-72
2021/09/07 09:45:47;;;;;;;33.05;25.17;;;26.70;49.20;;;;;;5021110;28;20049;-69
2021/09/07 09:48:25;;;;;;;33.50;26.70;;;26.80;48.50;;;;;;5020910;28;20042;-71
2021/09/07 09:50:53;;;;;;;32.00;25.55;;;27.00;48.30;;;;;;5016863;28;20079;-70
2021/09/07 09:53:20;;;;;;;33.63;25.42;;;27.10;47.90;;;;;;5016911;28;20029;-70
2021/09/07 09:55:48;;;;;;;32.78;26.17;;;27.10;48.00;;;;;;5006595;28;20057;-70
2021/09/07 09:58:17;;;;;;;31.33;24.10;;;27.10;46.60;;;;;;5011037;28;20099;-70
2021/09/07 10:00:47;;;;;;;25.95;21.17;;;27.00;46.80;;;;;;5016050;28;20487;-70
2021/09/07 10:03:14;;;;;;;28.77;22.23;;;27.10;47.90;;;;;;5021750;28;20053;-70
2021/09/07 10:05:41;;;;;;;33.40;23.50;;;27.20;47.00;;;;;;5013884;28;20385;-70
2021/09/07 10:08:10;;;;;;;28.73;20.38;;;27.40;45.90;;;;;;5010748;28;20533;-70
2021/09/07 10:11:03;;;;;;;30.90;23.88;;;27.60;47.20;;;;;;5022394;28;20125;-71
2021/09/07 10:13:32;;;;;;;29.42;21.92;;;27.60;46.70;;;;;;5005025;28;20060;-71
2021/09/07 10:16:01;;;;;;;28.27;20.30;;;27.60;46.40;;;;;;5022362;28;20026;-71
2021/09/07 10:21:07;;;;;;;26.23;20.55;;;27.80;45.80;;;;;;5025594;28;20479;-72
2021/09/07 10:23:53;;;;;;;27.63;22.05;;;28.00;45.10;;;;;;5024646;28;20072;-70
2021/09/07 10:26:42;;;;;;;26.50;21.20;;;27.90;44.90;;;;;;5023996;28;20058;-71
2021/09/07 10:29:21;;;;;;;28.65;21.23;;;27.80;45.30;;;;;;5026300;28;20037;-70
2021/09/07 10:31:53;;;;;;;26.92;20.67;;;27.90;45.00;;;;;;5029943;28;20045;-72
2021/09/07 10:34:23;;;;;;;25.88;20.15;;;28.00;45.10;;;;;;5001019;28;20054;-70
2021/09/07 10:37:00;;;;;;;25.67;19.70;;;28.20;45.50;;;;;;5027785;28;20042;-72
2021/09/07 10:39:35;;;;;;;30.23;20.08;;;28.20;44.50;;;;;;5010099;28;20038;-71
2021/09/07 10:42:06;;;;;;;24.10;18.63;;;28.20;45.60;;;;;;5026577;28;20073;-72
2021/09/07 10:44:42;;;;;;;23.92;19.30;;;28.30;44.60;;;;;;5030940;28;20042;-69
2021/09/07 10:47:11;;;;;;;22.23;17.30;;;28.30;44.00;;;;;;5032391;28;20037;-70
2021/09/07 10:49:37;;;;;;;24.13;17.05;;;28.50;42.80;;;;;;5027766;28;20385;-70
2021/09/07 10:52:25;;;;;;;23.67;18.15;;;28.60;42.10;;;;;;5021580;28;20535;-70
2021/09/07 10:54:53;;;;;;;19.63;14.25;;;28.50;42.80;;;;;;5025460;28;20049;-74
2021/09/07 10:57:34;;;;;;;18.50;14.80;;;28.60;40.90;;;;;;5014583;28;20384;-72
2021/09/07 11:00:19;;;;;;;20.38;14.57;;;28.70;40.50;;;;;;5013435;28;20187;-72
2021/09/07 11:02:55;;;;;;;22.33;15.27;;;28.60;40.40;;;;;;5008141;28;20631;-72
2021/09/07 11:05:34;;;;;;;20.88;14.65;;;28.90;39.60;;;;;;5025402;28;20543;-72
2021/09/07 11:08:16;;;;;;;17.05;13.63;;;28.80;39.90;;;;;;5023642;28;20472;-72
2021/09/07 11:10:48;;;;;;;17.35;13.02;;;29.00;40.30;;;;;;5036150;28;20030;-71
2021/09/07 11:13:27;;;;;;;16.30;11.57;;;29.00;39.30;;;;;;5024699;28;20516;-72
2021/09/07 11:15:55;;;;;;;16.38;12.65;;;29.30;39.50;;;;;;5027149;28;20033;-71
2021/09/07 11:18:28;;;;;;;17.45;13.57;;;29.40;39.50;;;;;;5026153;28;20022;-70
2021/09/07 11:20:56;;;;;;;16.35;11.93;;;29.50;36.80;;;;;;5018455;28;20041;-71
2021/09/07 11:23:25;;;;;;;17.33;12.00;;;29.30;38.20;;;;;;5028690;28;20525;-71
2021/09/07 11:26:01;;;;;;;16.52;11.00;;;29.30;37.80;;;;;;5027455;28;20041;-70
2021/09/07 11:28:28;;;;;;;14.38;11.00;;;29.40;37.80;;;;;;5027493;28;20508;-70
2021/09/07 11:30:54;;;;;;;13.73;10.55;;;29.50;37.20;;;;;;5027363;28;20124;-70
2021/09/07 11:33:22;;;;;;;14.82;11.20;;;29.40;37.20;;;;;;5008167;28;20042;-70
2021/09/07 11:35:50;;;;;;;13.43;10.10;;;29.50;36.70;;;;;;5017353;28;20042;-70
2021/09/07 11:38:19;;;;;;;13.98;10.30;;;29.70;36.30;;;;;;5008880;28;20030;-71
2021/09/07 11:40:47;;;;;;;15.18;10.05;;;29.70;35.80;;;;;;5009538;28;20083;-70
2021/09/07 11:43:25;;;;;;;13.30;10.68;;;29.70;36.10;;;;;;5027936;28;20042;-74
2021/09/07 11:46:02;;;;;;;13.50;10.20;;;29.80;37.10;;;;;;5024085;28;20049;-73
2021/09/07 11:48:28;;;;;;;13.07;9.23;;;29.80;36.00;;;;;;5010295;28;20030;-70
2021/09/07 11:50:54;;;;;;;14.07;8.50;;;29.80;36.10;;;;;;5027426;28;20064;-70
2021/09/07 11:53:19;;;;;;;11.48;7.82;;;29.80;34.40;;;;;;5021153;28;20100;-71
2021/09/07 11:55:50;;;;;;;12.57;8.38;;;29.90;35.50;;;;;;5006509;28;20036;-71
2021/09/07 11:58:28;;;;;;;12.80;8.20;;;30.10;36.40;;;;;;5017605;28;20367;-71
2021/09/07 12:01:12;;;;;;;12.82;8.68;;;29.80;36.50;;;;;;5001497;28;20033;-72
2021/09/07 12:03:43;;;;;;;13.65;7.95;;;30.00;35.90;;;;;;5008973;28;20559;-71
2021/09/07 12:06:14;;;;;;;10.85;7.55;;;29.90;35.20;;;;;;5024453;28;20489;-70
2021/09/07 12:08:43;;;;;;;9.52;7.03;;;29.60;36.00;;;;;;5010462;28;20112;-69
2021/09/07 12:11:30;;;;;;;10.77;6.38;;;29.80;37.10;;;;;;5022118;28;20046;-71
2021/09/07 12:14:10;;;;;;;9.85;6.47;;;30.00;35.80;;;;;;5020128;28;20084;-71
2021/09/07 12:16:53;;;;;;;10.65;6.45;;;30.10;35.50;;;;;;5022713;28;20037;-70
2021/09/07 12:19:43;;;;;;;13.63;6.67;;;29.90;35.70;;;;;;5022741;28;20041;-73
2021/09/07 12:22:26;;;;;;;10.57;6.53;;;29.70;35.90;;;;;;5025851;28;20046;-71
2021/09/07 12:25:07;;;;;;;8.73;6.20;;;29.60;36.30;;;;;;5010167;28;20237;-71
2021/09/07 12:27:44;;;;;;;10.85;6.78;;;29.60;36.60;;;;;;5001539;28;20046;-72
2021/09/07 12:30:18;;;;;;;10.95;7.05;;;29.80;36.40;;;;;;5008087;28;20429;-72
2021/09/07 12:33:01;;;;;;;10.63;6.32;;;29.60;37.00;;;;;;5022452;28;20037;-71
2021/09/07 12:35:39;;;;;;;10.25;6.20;;;29.70;37.60;;;;;;5007397;28;20128;-73